createdAt,value
2022-10-21T00:09:15.580Z,14.20
2022-10-21T00:14:22.563Z,14.30
2022-10-21T00:19:29.547Z,15.30
2022-10-21T00:24:36.762Z,14.70
2022-10-21T00:29:43.807Z,13.70
2022-10-21T00:34:50.724Z,12.90
2022-10-21T00:39:57.801Z,15.40
2022-10-21T00:45:24.457Z,14.90
2022-10-21T00:50:40.325Z,13.70
2022-10-21T00:55:52.695Z,14.00
2022-10-21T01:01:02.134Z,14.30
2022-10-21T01:06:11.759Z,14.30
2022-10-21T01:11:21.446Z,12.60
2022-10-21T01:16:37.161Z,12.90
2022-10-21T01:21:49.439Z,13.40
2022-10-21T01:27:30.794Z,13.90
2022-10-21T01:32:49.107Z,14.90
2022-10-21T01:38:08.635Z,14.00
2022-10-21T01:43:22.312Z,12.60
2022-10-21T01:48:34.791Z,10.70
2022-10-21T01:53:46.907Z,13.50
2022-10-21T01:58:55.340Z,13.80
2022-10-21T02:04:06.061Z,14.40
2022-10-21T02:09:13.226Z,15.70
2022-10-21T02:24:48.731Z,15.20
2022-10-21T02:30:01.004Z,14.30
2022-10-21T02:35:18.715Z,15.70
2022-10-21T02:40:32.007Z,15.40
2022-10-21T02:45:40.126Z,15.30
2022-10-21T02:50:47.376Z,15.20
2022-10-21T02:55:54.249Z,12.90
2022-10-21T03:01:01.437Z,14.20
2022-10-21T03:11:14.806Z,13.10
2022-10-21T03:21:27.953Z,13.60
2022-10-21T03:26:35.077Z,16.20
2022-10-21T03:31:42.469Z,15.40
2022-10-21T03:36:49.489Z,16.10
2022-10-21T03:41:57.014Z,14.60
2022-10-21T03:47:03.905Z,15.30
2022-10-21T03:52:10.957Z,17.60
2022-10-21T03:57:18.054Z,15.50
2022-10-21T04:02:25.251Z,17.40
2022-10-21T04:07:32.205Z,15.70
2022-10-21T04:12:40.061Z,14.60
2022-10-21T04:17:48.156Z,16.90
2022-10-21T04:22:55.492Z,17.60
2022-10-21T04:28:03.033Z,18.50
2022-10-21T04:33:10.602Z,18.10
2022-10-21T04:38:17.699Z,15.60
2022-10-21T04:43:24.869Z,18.50
2022-10-21T04:48:31.996Z,17.80
2022-10-21T04:58:44.724Z,18.80
2022-10-21T05:03:51.977Z,18.80
2022-10-21T05:08:58.900Z,18.20
2022-10-21T05:14:06.152Z,17.10
2022-10-21T05:24:19.726Z,17.20
2022-10-21T05:34:32.384Z,17.80
2022-10-21T05:44:51.355Z,17.40
2022-10-21T05:49:58.592Z,19.10
2022-10-21T05:55:06.508Z,20.20
2022-10-21T06:00:15.660Z,18.90
2022-10-21T06:05:23.252Z,19.10
2022-10-21T06:10:30.270Z,17.80
2022-10-21T06:15:37.893Z,18.80
2022-10-21T06:20:44.825Z,16.10
2022-10-21T06:26:00.228Z,16.30
2022-10-21T06:31:08.267Z,17.80
2022-10-21T06:36:15.384Z,22.10
2022-10-21T06:41:22.470Z,20.40
2022-10-21T06:46:30.963Z,18.60
2022-10-21T06:51:37.813Z,18.60
2022-10-21T06:56:44.815Z,17.00
2022-10-21T07:02:00.529Z,19.00
2022-10-21T07:07:08.395Z,18.20
2022-10-21T07:17:21.341Z,18.90
2022-10-21T07:37:21.318Z,21.20
2022-10-21T07:42:28.750Z,19.10
2022-10-21T07:47:36.284Z,19.50
2022-10-21T07:52:55.971Z,19.80
2022-10-21T07:58:11.291Z,20.60
2022-10-21T08:03:18.648Z,19.80
2022-10-21T08:13:31.990Z,16.60
2022-10-21T08:18:38.818Z,18.30
2022-10-21T08:23:46.460Z,20.90
2022-10-21T08:28:53.671Z,21.90
2022-10-21T08:34:01.316Z,22.70
2022-10-21T08:39:08.664Z,22.90
2022-10-21T08:49:31.479Z,21.30
2022-10-21T08:54:47.041Z,18.80
2022-10-21T08:59:54.283Z,20.70
2022-10-21T09:10:26.812Z,20.00
2022-10-21T09:15:40.860Z,19.30
2022-10-21T09:21:01.931Z,19.80
2022-10-21T09:26:26.581Z,21.80
2022-10-21T09:31:36.890Z,20.40
2022-10-21T09:36:48.752Z,20.50
2022-10-21T09:42:01.690Z,21.20
2022-10-21T09:47:22.174Z,23.20
2022-10-21T09:52:33.775Z,20.00
2022-10-21T09:57:47.373Z,23.10
2022-10-21T10:02:54.211Z,26.60
2022-10-21T10:08:01.367Z,28.90
2022-10-21T10:13:17.616Z,29.00
2022-10-21T10:18:26.647Z,26.80
2022-10-21T10:23:43.728Z,27.70
2022-10-21T10:28:58.121Z,25.50
2022-10-21T10:34:08.106Z,21.20
2022-10-21T10:39:24.699Z,21.10
2022-10-21T10:44:37.818Z,15.70
2022-10-21T10:49:45.402Z,14.00
2022-10-21T10:55:18.690Z,13.50
2022-10-21T11:00:26.367Z,12.80
2022-10-21T11:05:38.423Z,12.10
2022-10-21T11:10:49.475Z,13.10
2022-10-21T11:16:11.662Z,13.80
2022-10-21T11:21:34.284Z,14.10
2022-10-21T11:26:51.525Z,14.00
2022-10-21T11:37:32.512Z,11.20
2022-10-21T11:42:45.104Z,10.10
2022-10-21T11:47:59.657Z,11.20
2022-10-21T11:53:28.042Z,11.10
2022-10-21T11:58:46.308Z,12.00
2022-10-21T12:04:15.241Z,11.90
2022-10-21T12:09:27.985Z,11.90
2022-10-21T12:14:38.569Z,11.70
2022-10-21T12:19:53.348Z,12.00
2022-10-21T12:25:20.054Z,12.00
2022-10-21T12:30:55.536Z,11.40
2022-10-21T12:36:20.025Z,11.10
2022-10-21T12:41:35.523Z,10.60
2022-10-21T12:46:45.114Z,9.80
2022-10-21T12:51:56.023Z,10.50
2022-10-21T12:57:06.184Z,11.20
2022-10-21T13:02:29.839Z,10.20
2022-10-21T13:07:40.403Z,10.30
2022-10-21T13:12:49.257Z,9.50
2022-10-21T13:17:57.773Z,10.80
2022-10-21T13:23:32.877Z,10.60
2022-10-21T13:28:40.160Z,9.60
2022-10-21T13:33:54.845Z,8.90
2022-10-21T13:39:07.710Z,9.60
2022-10-21T13:44:30.103Z,9.70
2022-10-21T13:49:37.065Z,7.80
2022-10-21T13:54:44.281Z,9.40
2022-10-21T14:00:03.178Z,9.80
2022-10-21T14:05:37.199Z,9.90
2022-10-21T14:10:48.338Z,9.10
2022-10-21T14:15:55.881Z,9.90
2022-10-21T14:21:04.096Z,8.50
2022-10-21T14:26:11.766Z,8.90
2022-10-21T14:41:07.089Z,7.60
2022-10-21T14:46:15.937Z,7.80
2022-10-21T14:51:25.583Z,7.10
2022-10-21T14:56:36.207Z,6.80
2022-10-21T15:01:45.566Z,6.70
2022-10-21T15:07:03.786Z,7.30
2022-10-21T15:12:22.143Z,6.80
2022-10-21T15:17:29.271Z,6.90
2022-10-21T15:22:38.330Z,7.20
2022-10-21T15:27:46.096Z,6.70
2022-10-21T15:32:55.382Z,8.20
2022-10-21T15:38:02.649Z,7.20
2022-10-21T15:43:12.343Z,8.10
2022-10-21T15:48:23.321Z,8.80
2022-10-21T15:53:30.960Z,9.00
2022-10-21T15:58:38.086Z,11.00
2022-10-21T16:03:46.050Z,8.80
2022-10-21T16:08:54.030Z,9.60
2022-10-21T16:14:01.367Z,10.30
2022-10-21T16:19:08.856Z,10.30
2022-10-21T16:24:18.843Z,10.50
2022-10-21T16:29:27.079Z,9.80
2022-10-21T16:34:34.362Z,10.60
2022-10-21T16:39:41.586Z,10.50
2022-10-21T16:44:50.198Z,11.10
2022-10-21T16:50:02.221Z,11.60
2022-10-21T16:55:12.115Z,10.60
2022-10-21T17:00:20.427Z,9.70
2022-10-21T17:05:29.298Z,11.90
2022-10-21T17:10:36.582Z,11.30
2022-10-21T17:15:44.523Z,12.20
2022-10-21T17:20:54.065Z,11.00
2022-10-21T17:26:02.088Z,11.70
2022-10-21T17:31:11.347Z,11.50
2022-10-21T17:36:19.866Z,12.90
2022-10-21T17:41:27.285Z,12.40
2022-10-21T17:46:34.816Z,13.40
2022-10-21T17:51:42.553Z,14.00
2022-10-21T17:56:52.435Z,16.30
2022-10-21T18:02:01.940Z,12.80
2022-10-21T18:12:35.757Z,16.40
2022-10-21T18:17:43.402Z,17.00
2022-10-21T18:22:53.055Z,17.60
2022-10-21T18:28:00.327Z,17.10
2022-10-21T18:33:07.836Z,17.20
2022-10-21T18:38:15.928Z,17.50
2022-10-21T18:43:23.384Z,15.90
2022-10-21T18:48:30.684Z,15.10
2022-10-21T18:53:39.252Z,15.40
2022-10-21T18:58:47.879Z,15.70
2022-10-21T19:03:56.475Z,16.20
2022-10-21T19:09:04.999Z,14.60
2022-10-21T19:14:14.272Z,15.30
2022-10-21T19:19:21.904Z,15.40
2022-10-21T19:24:29.183Z,15.80
2022-10-21T19:29:36.838Z,15.90
2022-10-21T19:34:44.433Z,16.70
2022-10-21T19:39:51.812Z,16.80
2022-10-21T19:44:58.794Z,15.50
2022-10-21T19:55:12.230Z,16.50
2022-10-21T20:00:19.677Z,17.60
2022-10-21T20:05:26.962Z,16.10
2022-10-21T20:10:34.712Z,16.80
2022-10-21T20:15:49.410Z,17.00
2022-10-21T20:20:57.021Z,19.00
2022-10-21T20:26:05.218Z,18.70
2022-10-21T20:31:14.560Z,18.60
2022-10-21T20:36:24.162Z,19.60
2022-10-21T20:41:34.437Z,18.60
2022-10-21T20:46:41.484Z,15.50
2022-10-21T20:51:48.718Z,15.40
2022-10-21T21:02:01.283Z,17.90
2022-10-21T21:12:13.699Z,16.70
2022-10-21T21:21:23.883Z,20.40
2022-10-21T21:26:34.478Z,21.60
2022-10-21T21:31:42.610Z,22.50
2022-10-21T21:36:49.887Z,21.20
2022-10-21T21:41:57.118Z,23.50
2022-10-21T21:47:04.116Z,27.00
2022-10-21T21:57:34.115Z,26.40
2022-10-21T22:02:41.271Z,23.10
2022-10-21T22:12:56.582Z,27.90
2022-10-21T22:18:03.598Z,28.40
2022-10-21T22:28:16.140Z,28.70
2022-10-21T22:33:23.112Z,31.20
2022-10-21T22:38:30.506Z,24.20
2022-10-21T22:43:37.649Z,27.60
2022-10-21T22:53:55.153Z,28.40
2022-10-21T22:59:03.967Z,30.40
2022-10-21T23:04:12.358Z,28.70
2022-10-21T23:09:19.864Z,28.60
2022-10-21T23:14:27.120Z,28.50
2022-10-21T23:19:34.603Z,29.50
2022-10-21T23:24:41.686Z,29.80
2022-10-21T23:29:48.712Z,29.50
2022-10-21T23:34:55.869Z,25.70
2022-10-21T23:40:02.993Z,28.90
2022-10-21T23:50:16.799Z,31.50
2022-10-21T23:55:23.824Z,32.20
